createdAt,value
2023-05-16T00:02:11.642Z,11.70
2023-05-16T00:04:39.753Z,11.70
2023-05-16T00:07:07.936Z,11.70
2023-05-16T00:09:36.031Z,11.70
2023-05-16T00:12:04.631Z,11.70
2023-05-16T00:14:35.450Z,11.60
2023-05-16T00:17:04.961Z,11.50
2023-05-16T00:19:33.177Z,11.60
2023-05-16T00:22:01.343Z,11.60
2023-05-16T00:24:29.390Z,11.70
2023-05-16T00:26:57.513Z,11.70
2023-05-16T00:29:26.368Z,11.70
2023-05-16T00:31:56.017Z,11.60
2023-05-16T00:34:24.144Z,11.50
2023-05-16T00:36:53.880Z,11.40
2023-05-16T00:39:21.987Z,11.40
2023-05-16T00:41:50.660Z,11.40
2023-05-16T00:44:18.680Z,11.40
2023-05-16T00:46:46.894Z,11.50
2023-05-16T00:49:16.473Z,11.40
2023-05-16T00:51:44.600Z,11.30
2023-05-16T00:54:13.726Z,11.30
2023-05-16T00:56:41.980Z,11.10
2023-05-16T00:59:11.586Z,11.10
2023-05-16T01:01:54.332Z,11.10
2023-05-16T01:04:23.854Z,11.20
2023-05-16T01:06:52.017Z,11.20
2023-05-16T01:09:20.485Z,11.20
2023-05-16T01:11:53.027Z,11.20
2023-05-16T01:14:39.496Z,11.10
2023-05-16T01:17:12.599Z,11.00
2023-05-16T01:20:11.300Z,10.90
2023-05-16T01:22:54.084Z,10.90
2023-05-16T01:25:33.466Z,10.90
2023-05-16T01:28:03.812Z,10.80
2023-05-16T01:30:35.977Z,10.80
2023-05-16T01:33:04.113Z,10.80
2023-05-16T01:35:32.943Z,10.80
2023-05-16T01:38:12.541Z,10.80
2023-05-16T01:40:52.620Z,10.80
2023-05-16T01:43:30.789Z,10.80
2023-05-16T01:46:03.970Z,10.70
2023-05-16T01:48:37.476Z,10.80
2023-05-16T01:51:05.829Z,10.80
2023-05-16T01:53:39.285Z,10.80
2023-05-16T01:56:12.118Z,10.70
2023-05-16T01:58:43.535Z,10.60
2023-05-16T02:01:14.012Z,10.60
2023-05-16T02:03:42.153Z,10.70
2023-05-16T02:06:10.444Z,10.70
2023-05-16T02:08:38.507Z,10.60
2023-05-16T02:11:06.666Z,10.60
2023-05-16T02:13:34.711Z,10.60
2023-05-16T02:16:06.624Z,10.60
2023-05-16T02:18:35.006Z,10.70
2023-05-16T02:21:03.106Z,10.60
2023-05-16T02:23:31.138Z,10.60
2023-05-16T02:25:59.186Z,10.60
2023-05-16T02:28:27.212Z,10.60
2023-05-16T02:30:58.776Z,10.50
2023-05-16T02:33:29.233Z,10.50
2023-05-16T02:35:57.597Z,10.50
2023-05-16T02:38:27.598Z,10.50
2023-05-16T02:40:57.139Z,10.50
2023-05-16T02:43:25.288Z,10.50
2023-05-16T02:45:54.511Z,10.50
2023-05-16T02:48:22.534Z,10.50
2023-05-16T02:50:52.071Z,10.50
2023-05-16T02:53:20.374Z,10.50
2023-05-16T02:55:48.620Z,10.50
2023-05-16T02:58:16.696Z,10.40
2023-05-16T03:00:44.886Z,10.40
2023-05-16T03:03:12.992Z,10.40
2023-05-16T03:05:42.435Z,10.40
2023-05-16T03:08:11.833Z,10.30
2023-05-16T03:10:39.884Z,10.30
2023-05-16T03:13:08.102Z,10.30
2023-05-16T03:15:36.145Z,10.30
2023-05-16T03:18:04.414Z,10.10
2023-05-16T03:20:32.583Z,10.10
2023-05-16T03:23:00.688Z,10.10
2023-05-16T03:25:30.154Z,10.00
2023-05-16T03:27:58.249Z,10.00
2023-05-16T03:30:26.420Z,9.90
2023-05-16T03:32:54.561Z,9.90
2023-05-16T03:35:22.749Z,9.80
2023-05-16T03:37:50.991Z,9.80
2023-05-16T03:40:19.945Z,9.80
2023-05-16T03:42:49.301Z,9.80
2023-05-16T03:45:17.460Z,9.80
2023-05-16T03:47:45.592Z,9.80
2023-05-16T03:50:13.625Z,9.80
2023-05-16T03:52:41.642Z,9.80
2023-05-16T03:55:10.194Z,9.80
2023-05-16T03:57:39.187Z,9.80
2023-05-16T04:00:12.436Z,9.70
2023-05-16T04:02:41.651Z,9.70
2023-05-16T04:05:11.514Z,9.70
2023-05-16T04:07:39.598Z,9.70
2023-05-16T04:10:09.129Z,9.70
2023-05-16T04:12:37.568Z,9.70
2023-05-16T04:15:06.804Z,9.70
2023-05-16T04:17:36.380Z,9.80
2023-05-16T04:20:05.122Z,9.70
2023-05-16T04:22:36.428Z,9.80
2023-05-16T04:25:04.693Z,9.90
2023-05-16T04:27:32.719Z,9.90
2023-05-16T04:30:01.336Z,9.90
2023-05-16T04:32:30.155Z,10.00
2023-05-16T04:35:00.021Z,10.00
2023-05-16T04:37:28.216Z,10.20
2023-05-16T04:39:56.243Z,10.20
2023-05-16T04:42:24.421Z,10.30
2023-05-16T04:44:52.685Z,10.30
2023-05-16T04:47:20.800Z,10.40
2023-05-16T04:49:48.873Z,10.40
2023-05-16T04:52:18.245Z,10.50
2023-05-16T04:54:46.506Z,10.50
2023-05-16T04:57:14.692Z,10.50
2023-05-16T04:59:43.042Z,10.50
2023-05-16T05:02:11.456Z,10.60
2023-05-16T05:04:39.620Z,10.70
2023-05-16T05:07:08.182Z,10.70
2023-05-16T05:09:37.609Z,10.70
2023-05-16T05:12:07.892Z,10.90
2023-05-16T05:14:35.916Z,11.10
2023-05-16T05:17:04.031Z,11.10
2023-05-16T05:19:32.098Z,11.10
2023-05-16T05:22:00.171Z,11.10
2023-05-16T05:24:28.253Z,11.20
2023-05-16T05:26:57.931Z,11.20
2023-05-16T05:29:26.194Z,11.10
2023-05-16T05:31:54.211Z,11.10
2023-05-16T05:34:22.268Z,11.10
2023-05-16T05:36:50.323Z,11.10
2023-05-16T05:39:18.350Z,11.20
2023-05-16T05:41:46.462Z,11.30
2023-05-16T05:44:15.832Z,11.40
2023-05-16T05:46:44.402Z,11.60
2023-05-16T05:49:13.042Z,11.80
2023-05-16T05:51:41.148Z,12.20
2023-05-16T05:54:09.674Z,12.30
2023-05-16T05:56:37.719Z,12.40
2023-05-16T05:59:05.767Z,12.30
2023-05-16T06:01:35.212Z,12.50
2023-05-16T06:04:03.294Z,12.60
2023-05-16T06:06:31.809Z,12.60
2023-05-16T06:08:59.899Z,12.60
2023-05-16T06:11:27.964Z,12.70
2023-05-16T06:13:56.006Z,12.90
2023-05-16T06:16:26.375Z,13.00
2023-05-16T06:18:55.959Z,13.00
2023-05-16T06:21:24.358Z,13.10
2023-05-16T06:23:52.375Z,12.90
2023-05-16T06:26:20.410Z,12.90
2023-05-16T06:28:48.446Z,13.00
2023-05-16T06:31:16.475Z,13.20
2023-05-16T06:33:44.555Z,13.60
2023-05-16T06:36:13.895Z,13.60
2023-05-16T06:38:41.969Z,13.50
2023-05-16T06:41:09.992Z,13.50
2023-05-16T06:43:38.087Z,13.60
2023-05-16T06:46:06.235Z,13.60
2023-05-16T06:48:34.338Z,13.60
2023-05-16T06:51:02.402Z,13.30
2023-05-16T06:53:31.910Z,13.50
2023-05-16T06:55:59.995Z,13.60
2023-05-16T06:58:28.192Z,13.50
2023-05-16T07:00:56.328Z,13.40
2023-05-16T07:03:24.504Z,13.60
2023-05-16T07:05:53.086Z,13.70
2023-05-16T07:08:21.150Z,13.40
2023-05-16T07:10:50.693Z,13.20
2023-05-16T07:13:18.744Z,12.90
2023-05-16T07:15:46.877Z,12.70
2023-05-16T07:18:15.111Z,12.70
2023-05-16T07:20:43.326Z,12.80
2023-05-16T07:23:11.500Z,13.20
2023-05-16T07:25:39.886Z,13.30
2023-05-16T07:28:09.335Z,13.70
2023-05-16T07:30:37.449Z,13.80
2023-05-16T07:33:05.990Z,14.40
2023-05-16T07:35:34.179Z,14.20
2023-05-16T07:38:02.295Z,14.20
2023-05-16T07:40:30.435Z,14.10
2023-05-16T07:42:59.457Z,13.70
2023-05-16T07:45:29.239Z,13.30
2023-05-16T07:47:57.952Z,13.10
2023-05-16T07:50:26.204Z,12.90
2023-05-16T07:52:54.266Z,13.40
2023-05-16T07:55:23.450Z,13.80
2023-05-16T07:57:52.013Z,14.10
2023-05-16T08:00:21.548Z,14.10
2023-05-16T08:02:51.156Z,14.30
2023-05-16T08:05:19.471Z,14.50
2023-05-16T08:07:47.694Z,14.50
2023-05-16T08:10:16.111Z,15.10
2023-05-16T08:12:44.247Z,15.10
2023-05-16T08:15:13.432Z,15.00
2023-05-16T08:17:41.621Z,14.60
2023-05-16T08:20:12.205Z,14.30
2023-05-16T08:22:40.410Z,15.00
2023-05-16T08:25:09.282Z,15.60
2023-05-16T08:27:37.392Z,16.20
2023-05-16T08:30:06.530Z,16.20
2023-05-16T08:32:34.752Z,16.30
2023-05-16T08:35:02.892Z,15.50
2023-05-16T08:37:32.371Z,14.80
2023-05-16T08:40:00.471Z,14.40
2023-05-16T08:42:28.845Z,14.70
2023-05-16T08:44:56.938Z,15.10
2023-05-16T08:47:28.018Z,15.50
2023-05-16T08:49:58.929Z,15.90
2023-05-16T08:52:30.102Z,16.10
2023-05-16T08:55:10.429Z,15.70
2023-05-16T08:57:40.278Z,15.40
2023-05-16T09:00:12.769Z,15.30
2023-05-16T09:02:41.509Z,15.40
2023-05-16T09:05:12.417Z,15.20
2023-05-16T09:07:40.778Z,15.00
2023-05-16T09:10:11.318Z,14.90
2023-05-16T09:12:41.670Z,14.60
2023-05-16T09:15:11.409Z,13.90
2023-05-16T09:17:43.327Z,13.40
2023-05-16T09:20:15.537Z,13.80
2023-05-16T09:22:53.122Z,14.60
2023-05-16T09:27:56.014Z,15.70
2023-05-16T09:30:28.416Z,15.80
2023-05-16T09:32:56.527Z,15.70
2023-05-16T09:35:39.898Z,15.10
2023-05-16T09:38:16.192Z,14.40
2023-05-16T09:40:46.521Z,13.90
2023-05-16T09:43:18.229Z,14.70
2023-05-16T09:45:48.976Z,15.60
2023-05-16T09:48:18.366Z,16.30
2023-05-16T09:50:52.853Z,16.50
2023-05-16T09:53:28.460Z,16.10
2023-05-16T09:56:07.828Z,15.30
2023-05-16T09:58:37.893Z,14.70
2023-05-16T10:01:07.129Z,14.70
2023-05-16T10:03:37.790Z,15.70
2023-05-16T10:06:07.829Z,16.30
2023-05-16T10:08:37.488Z,16.50
2023-05-16T10:11:07.829Z,16.70
2023-05-16T10:13:37.729Z,17.50
2023-05-16T10:16:09.131Z,17.30
2023-05-16T10:18:39.444Z,16.60
2023-05-16T10:21:12.028Z,17.30
2023-05-16T10:23:43.768Z,18.10
2023-05-16T10:26:14.993Z,18.00
2023-05-16T10:28:43.646Z,17.50
2023-05-16T10:31:12.415Z,16.20
2023-05-16T10:33:41.230Z,15.50
2023-05-16T10:36:11.004Z,15.00
2023-05-16T10:38:39.688Z,14.30
2023-05-16T10:41:08.701Z,13.90
2023-05-16T10:43:38.378Z,14.00
2023-05-16T10:46:09.726Z,14.60
2023-05-16T10:48:39.747Z,15.10
2023-05-16T10:51:37.733Z,14.70
2023-05-16T10:54:12.489Z,14.30
2023-05-16T10:56:40.913Z,13.70
2023-05-16T11:02:02.567Z,13.90
2023-05-16T11:04:49.659Z,15.10
2023-05-16T11:07:19.660Z,15.60
2023-05-16T11:09:54.151Z,15.40
2023-05-16T11:12:22.335Z,14.60
2023-05-16T11:14:52.951Z,14.10
2023-05-16T11:17:25.164Z,14.10
2023-05-16T11:19:59.004Z,14.40
2023-05-16T11:22:29.506Z,15.00
2023-05-16T11:25:00.493Z,15.00
2023-05-16T11:27:31.029Z,14.80
2023-05-16T11:30:12.883Z,14.10
2023-05-16T11:32:43.889Z,13.80
2023-05-16T11:35:14.939Z,13.80
2023-05-16T11:37:43.875Z,13.70
2023-05-16T11:40:14.092Z,13.50
2023-05-16T11:42:44.647Z,13.20
2023-05-16T11:45:13.971Z,13.10
2023-05-16T11:47:45.641Z,13.20
2023-05-16T11:50:15.789Z,13.30
2023-05-16T11:52:46.101Z,13.50
2023-05-16T11:55:21.492Z,13.80
2023-05-16T11:57:58.629Z,14.20
2023-05-16T12:00:27.954Z,14.10
2023-05-16T12:03:04.471Z,14.00
2023-05-16T12:05:33.545Z,14.00
2023-05-16T12:08:04.779Z,14.40
2023-05-16T12:10:34.638Z,15.00
2023-05-16T12:13:03.739Z,15.00
2023-05-16T12:15:32.368Z,15.10
2023-05-16T12:18:02.464Z,15.40
2023-05-16T12:20:30.890Z,15.80
2023-05-16T12:22:59.318Z,15.80
2023-05-16T12:25:30.735Z,15.90
2023-05-16T12:28:00.303Z,15.60
2023-05-16T12:30:29.768Z,15.50
2023-05-16T12:32:58.569Z,15.60
2023-05-16T12:35:32.140Z,15.50
2023-05-16T12:38:00.283Z,15.30
2023-05-16T12:40:30.355Z,15.00
2023-05-16T12:42:58.971Z,14.80
2023-05-16T12:45:28.642Z,14.40
2023-05-16T12:47:56.811Z,14.20
2023-05-16T12:50:29.536Z,14.10
2023-05-16T12:53:01.346Z,14.10
2023-05-16T12:55:29.536Z,14.10
2023-05-16T12:57:58.687Z,14.00
2023-05-16T13:00:27.040Z,14.00
2023-05-16T13:02:55.458Z,13.80
2023-05-16T13:05:23.616Z,13.90
2023-05-16T13:07:53.080Z,13.90
2023-05-16T13:10:21.417Z,14.10
2023-05-16T13:12:49.498Z,14.20
2023-05-16T13:15:17.978Z,13.50
2023-05-16T13:17:46.258Z,13.10
2023-05-16T13:20:15.153Z,13.00
2023-05-16T13:22:44.704Z,12.80
2023-05-16T13:25:14.492Z,12.60
2023-05-16T13:27:42.593Z,12.60
2023-05-16T13:30:11.699Z,12.60
2023-05-16T13:32:39.970Z,12.60
2023-05-16T13:35:09.552Z,12.40
2023-05-16T13:37:38.326Z,12.50
2023-05-16T13:40:10.505Z,12.50
2023-05-16T13:42:40.320Z,12.40
2023-05-16T13:45:09.754Z,12.40
2023-05-16T13:47:38.067Z,12.60
2023-05-16T13:50:09.983Z,13.00
2023-05-16T13:52:39.200Z,13.20
2023-05-16T13:55:08.170Z,13.20
2023-05-16T13:57:36.582Z,13.10
2023-05-16T14:00:44.141Z,13.10
2023-05-16T14:03:00.559Z,13.10
2023-05-16T14:05:28.866Z,13.20
2023-05-16T14:07:56.971Z,13.20
2023-05-16T14:10:25.224Z,13.00
2023-05-16T14:12:53.372Z,12.90
2023-05-16T14:15:22.784Z,12.90
2023-05-16T14:17:51.032Z,13.00
2023-05-16T14:20:19.166Z,13.10
2023-05-16T14:22:47.239Z,13.10
2023-05-16T14:25:15.456Z,13.30
2023-05-16T14:27:43.560Z,13.20
2023-05-16T14:30:12.469Z,13.10
2023-05-16T14:32:42.008Z,13.10
2023-05-16T14:35:11.070Z,13.20
2023-05-16T14:37:39.153Z,13.20
2023-05-16T14:40:09.092Z,13.30
2023-05-16T14:42:37.277Z,13.20
2023-05-16T14:45:06.472Z,13.20
2023-05-16T14:47:34.605Z,13.30
2023-05-16T14:50:04.187Z,13.40
2023-05-16T14:52:32.298Z,13.30
2023-05-16T14:55:01.027Z,13.30
2023-05-16T14:57:29.451Z,13.20
2023-05-16T14:59:58.529Z,13.10
2023-05-16T15:02:27.750Z,13.10
2023-05-16T15:04:55.966Z,13.00
2023-05-16T15:07:26.197Z,12.90
2023-05-16T15:09:54.311Z,12.80
2023-05-16T15:12:22.753Z,12.70
2023-05-16T15:14:50.819Z,12.80
2023-05-16T15:17:18.863Z,12.60
2023-05-16T15:19:47.847Z,12.40
2023-05-16T15:22:15.936Z,12.40
2023-05-16T15:24:45.473Z,12.30
2023-05-16T15:27:13.821Z,12.20
2023-05-16T15:29:42.113Z,12.20
2023-05-16T15:32:11.348Z,12.00
2023-05-16T15:34:39.680Z,12.00
2023-05-16T15:37:07.782Z,12.10
2023-05-16T15:39:36.067Z,12.30
2023-05-16T15:42:10.522Z,12.40
2023-05-16T15:44:39.656Z,12.30
2023-05-16T15:47:08.424Z,12.20
2023-05-16T15:49:36.496Z,12.10
2023-05-16T15:52:05.001Z,12.20
2023-05-16T15:54:33.182Z,12.30
2023-05-16T15:57:03.781Z,12.30
2023-05-16T15:59:33.248Z,12.30
2023-05-16T16:02:05.291Z,12.10
2023-05-16T16:04:33.775Z,12.20
2023-05-16T16:07:01.936Z,12.30
2023-05-16T16:09:30.021Z,12.30
2023-05-16T16:11:58.129Z,12.30
2023-05-16T16:14:26.658Z,12.30
2023-05-16T16:16:56.142Z,12.30
2023-05-16T16:19:24.507Z,12.40
2023-05-16T16:21:52.678Z,12.50
2023-05-16T16:24:21.160Z,12.40
2023-05-16T16:26:49.281Z,12.40
2023-05-16T16:29:17.507Z,12.40
2023-05-16T16:31:45.613Z,12.30
2023-05-16T16:34:15.270Z,12.30
2023-05-16T16:36:43.359Z,12.30
2023-05-16T16:39:11.579Z,12.40
2023-05-16T16:41:39.650Z,12.50
2023-05-16T16:44:07.702Z,12.40
2023-05-16T16:46:36.151Z,12.40
2023-05-16T16:49:04.259Z,12.40
2023-05-16T16:51:35.134Z,12.40
2023-05-16T16:54:03.256Z,12.40
2023-05-16T16:56:31.555Z,12.40
2023-05-16T16:58:59.730Z,12.50
2023-05-16T17:01:31.791Z,12.50
2023-05-16T17:04:00.203Z,12.60
2023-05-16T17:06:30.013Z,12.50
2023-05-16T17:09:03.179Z,12.50
2023-05-16T17:11:31.794Z,12.40
2023-05-16T17:13:59.973Z,12.30
2023-05-16T17:16:29.431Z,12.30
2023-05-16T17:18:57.723Z,12.20
2023-05-16T17:21:26.653Z,12.20
2023-05-16T17:23:55.182Z,12.20
2023-05-16T17:26:24.838Z,12.30
2023-05-16T17:28:52.865Z,12.30
2023-05-16T17:31:21.053Z,12.30
2023-05-16T17:33:49.217Z,12.30
2023-05-16T17:36:17.271Z,12.10
2023-05-16T17:38:45.362Z,12.10
2023-05-16T17:41:13.436Z,12.10
2023-05-16T17:43:45.297Z,12.20
2023-05-16T17:46:14.383Z,12.10
2023-05-16T17:48:42.598Z,12.10
2023-05-16T17:51:10.702Z,12.10
2023-05-16T17:53:39.178Z,12.10
2023-05-16T17:56:07.644Z,12.00
2023-05-16T17:58:36.242Z,12.10
2023-05-16T18:01:08.280Z,12.10
2023-05-16T18:03:37.164Z,12.00
2023-05-16T18:06:05.595Z,11.90
2023-05-16T18:08:33.868Z,11.90
2023-05-16T18:11:02.038Z,11.90
2023-05-16T18:13:30.929Z,11.80
2023-05-16T18:15:59.031Z,11.80
2023-05-16T18:18:28.719Z,11.80
2023-05-16T18:20:56.866Z,11.90
2023-05-16T18:23:25.285Z,11.80
2023-05-16T18:25:54.044Z,11.70
2023-05-16T18:28:22.550Z,11.70
2023-05-16T18:30:50.790Z,11.60
2023-05-16T18:33:18.984Z,11.70
2023-05-16T18:35:48.480Z,11.60
2023-05-16T18:38:28.249Z,11.60
2023-05-16T18:41:00.545Z,11.60
2023-05-16T18:43:28.705Z,11.50
2023-05-16T18:45:57.778Z,11.50
2023-05-16T18:48:26.187Z,11.50
2023-05-16T18:50:55.905Z,11.40
2023-05-16T18:53:24.071Z,11.30
2023-05-16T18:55:52.206Z,11.20
2023-05-16T18:58:20.453Z,11.20
2023-05-16T19:00:48.573Z,11.20
2023-05-16T19:03:17.229Z,11.10
2023-05-16T19:05:45.683Z,11.10
2023-05-16T19:08:15.240Z,11.10
2023-05-16T19:10:43.333Z,11.10
2023-05-16T19:13:11.496Z,11.10
2023-05-16T19:15:39.636Z,11.00
2023-05-16T19:18:07.991Z,10.90
2023-05-16T19:20:36.660Z,10.90
2023-05-16T19:23:04.778Z,10.90
2023-05-16T19:25:34.279Z,10.90
2023-05-16T19:28:02.457Z,10.80
2023-05-16T19:30:30.775Z,10.80
2023-05-16T19:32:59.016Z,10.80
2023-05-16T19:35:27.598Z,10.80
2023-05-16T19:37:55.854Z,10.80
2023-05-16T19:40:24.184Z,10.80
2023-05-16T19:42:53.603Z,10.70
2023-05-16T19:45:21.902Z,10.70
2023-05-16T19:47:50.051Z,10.70
2023-05-16T19:50:19.157Z,10.80
2023-05-16T19:52:47.251Z,10.70
2023-05-16T19:55:15.713Z,10.70
2023-05-16T19:57:43.797Z,10.70
2023-05-16T20:00:14.912Z,10.70
2023-05-16T20:02:43.402Z,10.70
2023-05-16T20:05:12.348Z,10.60
2023-05-16T20:07:40.643Z,10.60
2023-05-16T20:10:10.199Z,10.70
2023-05-16T20:12:41.190Z,10.70
2023-05-16T20:15:11.000Z,10.70
2023-05-16T20:17:41.166Z,10.60
2023-05-16T20:20:10.367Z,10.60
2023-05-16T20:22:41.277Z,10.60
2023-05-16T20:25:11.667Z,10.60
2023-05-16T20:27:40.578Z,10.50
2023-05-16T20:30:09.798Z,10.50
2023-05-16T20:32:38.006Z,10.50
2023-05-16T20:35:10.812Z,10.60
2023-05-16T20:37:39.281Z,10.60
2023-05-16T20:40:08.880Z,10.60
2023-05-16T20:42:37.801Z,10.50
2023-05-16T20:45:06.500Z,10.60
2023-05-16T20:47:34.732Z,10.50
2023-05-16T20:50:03.047Z,10.50
2023-05-16T20:52:32.517Z,10.60
2023-05-16T20:55:01.483Z,10.60
2023-05-16T20:57:29.711Z,10.60
2023-05-16T20:59:57.850Z,10.70
2023-05-16T21:02:25.938Z,10.70
2023-05-16T21:04:54.131Z,10.70
2023-05-16T21:07:22.528Z,10.70
2023-05-16T21:09:52.015Z,10.70
2023-05-16T21:12:20.117Z,10.70
2023-05-16T21:14:48.247Z,10.70
2023-05-16T21:17:16.360Z,10.70
2023-05-16T21:19:44.551Z,10.70
2023-05-16T21:22:12.782Z,10.70
2023-05-16T21:24:41.692Z,10.70
2023-05-16T21:27:11.647Z,10.70
2023-05-16T21:29:39.756Z,10.70
2023-05-16T21:32:09.221Z,10.70
2023-05-16T21:34:37.315Z,10.60
2023-05-16T21:37:07.243Z,10.60
2023-05-16T21:39:35.689Z,10.60
2023-05-16T21:42:03.797Z,10.60
2023-05-16T21:44:33.253Z,10.60
2023-05-16T21:47:01.378Z,10.60
2023-05-16T21:49:29.503Z,10.60
2023-05-16T21:51:57.641Z,10.60
2023-05-16T21:54:25.782Z,10.60
2023-05-16T21:56:53.932Z,10.50
2023-05-16T21:59:22.032Z,10.50
2023-05-16T22:01:51.510Z,10.50
2023-05-16T22:04:19.833Z,10.50
2023-05-16T22:06:48.120Z,10.50
2023-05-16T22:09:16.292Z,10.50
2023-05-16T22:11:44.436Z,10.50
2023-05-16T22:14:12.558Z,10.50
2023-05-16T22:16:40.834Z,10.50
2023-05-16T22:19:10.572Z,10.50
2023-05-16T22:21:38.677Z,10.50
2023-05-16T22:24:07.557Z,10.50
2023-05-16T22:26:35.720Z,10.40
2023-05-16T22:29:03.800Z,10.40
2023-05-16T22:31:31.889Z,10.30
2023-05-16T22:33:59.987Z,10.30
2023-05-16T22:36:29.570Z,10.30
2023-05-16T22:38:57.721Z,10.20
2023-05-16T22:41:25.832Z,10.20
2023-05-16T22:43:53.946Z,10.20
2023-05-16T22:46:22.110Z,10.10
2023-05-16T22:48:50.223Z,10.10
2023-05-16T22:51:18.387Z,10.10
2023-05-16T22:53:47.853Z,10.10
2023-05-16T22:56:16.005Z,10.10
2023-05-16T22:58:44.087Z,10.10
2023-05-16T23:01:12.179Z,10.10
2023-05-16T23:03:40.318Z,10.10
2023-05-16T23:06:08.597Z,10.10
2023-05-16T23:08:36.683Z,10.10
2023-05-16T23:11:06.178Z,10.00
2023-05-16T23:13:34.249Z,10.00
2023-05-16T23:16:02.342Z,10.00
2023-05-16T23:18:30.580Z,10.00
2023-05-16T23:20:58.828Z,9.90
2023-05-16T23:23:26.935Z,9.90
2023-05-16T23:25:55.020Z,9.90
2023-05-16T23:28:24.546Z,9.80
2023-05-16T23:30:52.649Z,9.80
2023-05-16T23:33:20.847Z,9.80
2023-05-16T23:35:49.092Z,9.70
2023-05-16T23:38:17.218Z,9.70
2023-05-16T23:40:45.313Z,9.70
2023-05-16T23:43:13.837Z,9.70
2023-05-16T23:45:43.286Z,9.60
2023-05-16T23:48:11.425Z,9.60
2023-05-16T23:50:39.580Z,9.60
2023-05-16T23:53:07.745Z,9.50
2023-05-16T23:55:35.826Z,9.50
2023-05-16T23:58:03.944Z,9.50
